createdAt,value
2016-10-27T00:00:09.716Z,0
2016-10-27T00:01:18.450Z,0
2016-10-27T00:02:27.149Z,0
2016-10-27T00:03:35.849Z,0
2016-10-27T00:04:44.548Z,0
2016-10-27T00:05:53.248Z,0
2016-10-27T00:07:01.948Z,0
2016-10-27T00:08:10.643Z,0
2016-10-27T00:09:19.350Z,0
2016-10-27T00:10:28.054Z,0
2016-10-27T00:11:36.802Z,0
2016-10-27T00:12:45.499Z,0
2016-10-27T00:13:54.199Z,0
2016-10-27T00:15:03.212Z,0
2016-10-27T00:16:11.969Z,0
2016-10-27T00:17:20.670Z,0
2016-10-27T00:18:29.364Z,0
2016-10-27T00:19:38.077Z,0
2016-10-27T00:20:46.777Z,0
2016-10-27T00:21:55.485Z,0
2016-10-27T00:23:04.187Z,0
2016-10-27T00:24:12.885Z,0
2016-10-27T00:25:21.583Z,0
2016-10-27T00:26:30.282Z,0
2016-10-27T00:27:38.980Z,0
2016-10-27T00:28:47.677Z,0
2016-10-27T00:29:56.383Z,0
2016-10-27T00:31:05.087Z,0
2016-10-27T00:32:13.797Z,0
2016-10-27T00:33:22.493Z,0
2016-10-27T00:34:31.191Z,0
2016-10-27T00:35:39.897Z,0
2016-10-27T00:36:48.590Z,0
2016-10-27T00:37:57.315Z,0
2016-10-27T00:39:06.017Z,0
2016-10-27T00:40:14.721Z,0
2016-10-27T00:41:23.427Z,0
2016-10-27T00:42:32.135Z,0
2016-10-27T00:43:40.833Z,0
2016-10-27T00:44:49.535Z,0
2016-10-27T00:45:58.233Z,0
2016-10-27T00:47:07.251Z,0
2016-10-27T00:48:15.956Z,0
2016-10-27T00:49:24.657Z,0
2016-10-27T00:50:33.369Z,0
2016-10-27T00:51:42.105Z,0
2016-10-27T00:52:50.806Z,0
2016-10-27T00:53:59.508Z,0
2016-10-27T00:55:08.210Z,0
2016-10-27T00:56:16.902Z,0
2016-10-27T00:57:25.600Z,0
2016-10-27T00:58:34.299Z,0
2016-10-27T00:59:43.315Z,0
2016-10-27T01:00:52.021Z,0
2016-10-27T01:02:00.722Z,0
2016-10-27T01:03:09.428Z,0
2016-10-27T01:04:18.161Z,0
2016-10-27T01:05:26.860Z,0
2016-10-27T01:06:35.559Z,0
2016-10-27T01:07:44.259Z,0
2016-10-27T01:08:52.960Z,0
2016-10-27T01:10:01.665Z,0
2016-10-27T01:11:10.406Z,0
2016-10-27T01:12:19.134Z,0
2016-10-27T01:13:28.190Z,0
2016-10-27T01:14:36.889Z,0
2016-10-27T01:15:45.594Z,0
2016-10-27T01:16:54.292Z,0
2016-10-27T01:18:02.995Z,0
2016-10-27T01:19:11.694Z,0
2016-10-27T01:20:20.390Z,0
2016-10-27T01:21:29.085Z,0
2016-10-27T01:22:37.785Z,0
2016-10-27T01:23:46.479Z,0
2016-10-27T01:24:55.180Z,0
2016-10-27T01:26:03.878Z,0
2016-10-27T01:27:12.580Z,0
2016-10-27T01:28:21.311Z,0
2016-10-27T01:29:30.012Z,0
2016-10-27T01:30:38.707Z,0
2016-10-27T01:31:47.402Z,0
2016-10-27T01:32:56.093Z,0
2016-10-27T01:34:04.789Z,0
2016-10-27T01:35:13.495Z,0
2016-10-27T01:36:22.198Z,0
2016-10-27T01:37:30.894Z,0
2016-10-27T01:38:39.593Z,0
2016-10-27T01:39:48.285Z,0
2016-10-27T01:40:56.987Z,0
2016-10-27T01:42:05.701Z,0
2016-10-27T01:43:14.399Z,0
2016-10-27T01:44:23.100Z,0
2016-10-27T01:45:31.794Z,0
2016-10-27T01:46:40.609Z,0
2016-10-27T01:47:49.452Z,0
2016-10-27T01:48:58.295Z,0
2016-10-27T01:50:07.186Z,0
2016-10-27T01:51:15.919Z,0
2016-10-27T01:52:24.653Z,0
2016-10-27T01:53:33.379Z,0
2016-10-27T01:54:42.077Z,0
2016-10-27T01:55:50.771Z,0
2016-10-27T01:56:59.470Z,0
2016-10-27T01:58:08.172Z,0
2016-10-27T01:59:16.867Z,0
2016-10-27T02:00:25.562Z,0
2016-10-27T02:01:34.260Z,0
2016-10-27T02:02:43.317Z,0
2016-10-27T02:03:52.012Z,0
2016-10-27T02:05:00.719Z,0
2016-10-27T02:06:09.421Z,0
2016-10-27T02:07:18.160Z,0
2016-10-27T02:08:26.955Z,0
2016-10-27T02:09:35.653Z,0
2016-10-27T02:10:44.353Z,0
2016-10-27T02:11:53.046Z,0
2016-10-27T02:13:01.745Z,0
2016-10-27T02:14:10.443Z,0
2016-10-27T02:15:19.144Z,0
2016-10-27T02:16:27.844Z,0
2016-10-27T02:17:36.541Z,0
2016-10-27T02:18:45.243Z,0
2016-10-27T02:19:53.955Z,0
2016-10-27T02:21:02.692Z,0
2016-10-27T02:22:11.391Z,0
2016-10-27T02:23:20.091Z,0
2016-10-27T02:24:28.786Z,0
2016-10-27T02:25:37.483Z,0
2016-10-27T02:26:46.175Z,0
2016-10-27T02:27:54.874Z,0
2016-10-27T02:29:03.886Z,0
2016-10-27T02:30:12.584Z,0
2016-10-27T02:31:21.281Z,0
2016-10-27T02:32:29.985Z,0
2016-10-27T02:33:38.681Z,0
2016-10-27T02:34:47.379Z,0
2016-10-27T02:35:56.212Z,0
2016-10-27T02:37:05.041Z,0
2016-10-27T02:38:13.906Z,0
2016-10-27T02:39:22.741Z,0
2016-10-27T02:40:31.479Z,0
2016-10-27T02:41:40.185Z,0
2016-10-27T02:42:48.890Z,0
2016-10-27T02:43:57.590Z,0
2016-10-27T02:45:06.294Z,0
2016-10-27T02:46:15.002Z,0
2016-10-27T02:47:23.709Z,0
2016-10-27T02:48:32.454Z,0
2016-10-27T02:49:41.480Z,0
2016-10-27T02:50:50.179Z,0
2016-10-27T02:51:58.884Z,0
2016-10-27T02:53:07.585Z,0
2016-10-27T02:54:16.291Z,0
2016-10-27T02:55:24.995Z,0
2016-10-27T02:56:33.706Z,0
2016-10-27T02:57:42.421Z,0
2016-10-27T02:58:51.128Z,0
2016-10-27T02:59:59.829Z,0
2016-10-27T03:01:08.540Z,0
2016-10-27T03:02:17.242Z,0
2016-10-27T03:03:25.944Z,0
2016-10-27T03:04:34.647Z,0
2016-10-27T03:05:43.350Z,0
2016-10-27T03:06:52.048Z,0
2016-10-27T03:08:00.777Z,0
2016-10-27T03:09:09.477Z,0
2016-10-27T03:10:18.177Z,0
2016-10-27T03:11:26.869Z,0
2016-10-27T03:12:35.574Z,0
2016-10-27T03:13:44.272Z,0
2016-10-27T03:14:52.964Z,0
2016-10-27T03:16:01.696Z,0
2016-10-27T03:17:10.405Z,0
2016-10-27T03:18:19.109Z,0
2016-10-27T03:19:27.814Z,0
2016-10-27T03:20:36.836Z,0
2016-10-27T03:21:45.550Z,0
2016-10-27T03:22:54.250Z,0
2016-10-27T03:24:02.957Z,0
2016-10-27T03:25:11.660Z,0
2016-10-27T03:26:20.367Z,0
2016-10-27T03:27:29.067Z,0
2016-10-27T03:28:37.765Z,0
2016-10-27T03:29:46.474Z,0
2016-10-27T03:30:55.179Z,0
2016-10-27T03:32:03.880Z,0
2016-10-27T03:33:12.632Z,0
2016-10-27T03:34:21.334Z,0
2016-10-27T03:35:30.037Z,0
2016-10-27T03:36:38.738Z,0
2016-10-27T03:37:47.442Z,0
2016-10-27T03:38:56.141Z,0
2016-10-27T03:40:04.843Z,0
2016-10-27T03:41:13.548Z,0
2016-10-27T03:42:22.250Z,0
2016-10-27T03:43:30.962Z,0
2016-10-27T03:44:39.662Z,0
2016-10-27T03:45:48.376Z,0
2016-10-27T03:46:57.095Z,0
2016-10-27T03:48:05.799Z,0
2016-10-27T03:49:14.817Z,0
2016-10-27T03:50:23.519Z,0
2016-10-27T03:51:32.225Z,0
2016-10-27T03:52:40.931Z,0
2016-10-27T03:53:49.636Z,0
2016-10-27T03:54:58.345Z,0
2016-10-27T03:56:07.047Z,0
2016-10-27T03:57:15.757Z,0
2016-10-27T03:58:24.460Z,0
2016-10-27T03:59:33.168Z,0
2016-10-27T04:00:41.876Z,0
2016-10-27T04:01:50.592Z,0
2016-10-27T04:02:59.606Z,0
2016-10-27T04:04:08.311Z,0
2016-10-27T04:05:17.009Z,0
2016-10-27T04:06:25.713Z,0
2016-10-27T04:07:34.420Z,0
2016-10-27T04:08:43.116Z,0
2016-10-27T04:09:51.810Z,0
2016-10-27T04:11:00.514Z,0
2016-10-27T04:12:09.527Z,0
2016-10-27T04:13:18.222Z,0
2016-10-27T04:14:26.918Z,0
2016-10-27T04:15:35.610Z,0
2016-10-27T04:16:44.315Z,0
2016-10-27T04:17:53.013Z,0
2016-10-27T04:19:01.711Z,0
2016-10-27T04:20:10.408Z,0
2016-10-27T04:21:19.102Z,0
2016-10-27T04:22:27.797Z,0
2016-10-27T04:23:36.498Z,0
2016-10-27T04:24:45.195Z,0
2016-10-27T04:25:53.894Z,0
2016-10-27T04:27:02.596Z,0
2016-10-27T04:28:11.341Z,0
2016-10-27T04:29:20.045Z,0
2016-10-27T04:30:28.740Z,0
2016-10-27T04:31:37.436Z,0
2016-10-27T04:32:46.132Z,0
2016-10-27T04:33:54.830Z,0
2016-10-27T04:35:03.528Z,0
2016-10-27T04:36:12.235Z,0
2016-10-27T04:37:20.931Z,0
2016-10-27T04:38:29.629Z,0
2016-10-27T04:39:38.359Z,0
2016-10-27T04:40:47.054Z,0
2016-10-27T04:41:55.750Z,0
2016-10-27T04:43:04.450Z,0
2016-10-27T04:44:13.185Z,0
2016-10-27T04:45:21.878Z,0
2016-10-27T04:46:30.599Z,0
2016-10-27T04:47:39.304Z,0
2016-10-27T04:48:48.013Z,0
2016-10-27T04:49:56.712Z,0
2016-10-27T04:51:05.406Z,0
2016-10-27T04:52:14.105Z,0
2016-10-27T04:53:22.804Z,0
2016-10-27T04:54:31.498Z,0
2016-10-27T04:55:40.193Z,0
2016-10-27T04:56:48.892Z,0
2016-10-27T04:57:57.591Z,0
2016-10-27T04:59:06.290Z,0
2016-10-27T05:00:14.989Z,0
2016-10-27T05:01:23.712Z,0
2016-10-27T05:02:32.411Z,0
2016-10-27T05:03:41.115Z,0
2016-10-27T05:04:49.813Z,0
2016-10-27T05:05:58.522Z,0
2016-10-27T05:07:07.224Z,0
2016-10-27T05:08:15.927Z,0
2016-10-27T05:09:24.630Z,0
2016-10-27T05:10:33.334Z,0
2016-10-27T05:11:42.030Z,0
2016-10-27T05:12:50.724Z,0
2016-10-27T05:13:59.423Z,0
2016-10-27T05:15:08.118Z,0
2016-10-27T05:16:16.814Z,0
2016-10-27T05:17:25.519Z,0
2016-10-27T05:18:34.215Z,0
2016-10-27T05:19:42.909Z,0
2016-10-27T05:20:51.604Z,0
2016-10-27T05:22:00.301Z,0
2016-10-27T05:23:09.041Z,0
2016-10-27T05:24:17.746Z,0
2016-10-27T05:25:26.479Z,0
2016-10-27T05:26:35.179Z,0
2016-10-27T05:27:43.877Z,0
2016-10-27T05:28:52.576Z,0
2016-10-27T05:30:01.307Z,0
2016-10-27T05:31:10.009Z,0
2016-10-27T05:32:18.710Z,0
2016-10-27T05:33:27.448Z,0
2016-10-27T05:34:36.146Z,0
2016-10-27T05:35:44.846Z,0
2016-10-27T05:36:53.540Z,0
2016-10-27T05:38:02.555Z,0
2016-10-27T05:39:11.255Z,0
2016-10-27T05:40:20.265Z,0
2016-10-27T05:41:29.004Z,0
2016-10-27T05:42:37.700Z,0
2016-10-27T05:43:46.399Z,0
2016-10-27T05:44:55.105Z,0
2016-10-27T05:46:04.116Z,0
2016-10-27T05:47:12.812Z,0
2016-10-27T05:48:21.511Z,4
2016-10-27T05:49:30.208Z,4
2016-10-27T05:50:38.915Z,4
2016-10-27T05:51:47.612Z,0
2016-10-27T05:52:56.304Z,0
2016-10-27T05:54:05.003Z,4
2016-10-27T05:55:13.703Z,4
2016-10-27T05:56:22.397Z,4
2016-10-27T05:57:31.096Z,4
2016-10-27T05:58:39.790Z,8
2016-10-27T05:59:48.493Z,4
2016-10-27T06:00:57.192Z,4
2016-10-27T06:02:05.894Z,8
2016-10-27T06:03:14.595Z,8
2016-10-27T06:04:23.296Z,8
2016-10-27T06:05:31.997Z,8
2016-10-27T06:06:41.007Z,12
2016-10-27T06:07:49.700Z,16
2016-10-27T06:08:58.396Z,12
2016-10-27T06:10:07.088Z,16
2016-10-27T06:11:15.788Z,16
2016-10-27T06:12:24.483Z,20
2016-10-27T06:13:33.181Z,20
2016-10-27T06:14:41.877Z,24
2016-10-27T06:15:50.903Z,24
2016-10-27T06:16:59.602Z,28
2016-10-27T06:18:08.339Z,32
2016-10-27T06:19:17.033Z,36
2016-10-27T06:20:25.736Z,40
2016-10-27T06:21:34.433Z,40
2016-10-27T06:22:43.455Z,44
2016-10-27T06:23:52.155Z,52
2016-10-27T06:25:00.851Z,60
2016-10-27T06:26:09.550Z,64
2016-10-27T06:27:18.248Z,68
2016-10-27T06:28:26.941Z,76
2016-10-27T06:29:35.643Z,80
2016-10-27T06:30:44.338Z,92
2016-10-27T06:31:53.035Z,104
2016-10-27T06:33:01.728Z,120
2016-10-27T06:34:10.429Z,136
2016-10-27T06:35:19.474Z,152
2016-10-27T06:36:28.856Z,160
2016-10-27T06:37:37.552Z,152
2016-10-27T06:38:46.256Z,144
2016-10-27T06:39:54.958Z,136
2016-10-27T06:41:03.652Z,128
2016-10-27T06:42:12.393Z,124
2016-10-27T06:43:21.099Z,120
2016-10-27T06:44:29.805Z,112
2016-10-27T06:45:38.503Z,104
2016-10-27T06:46:47.215Z,92
2016-10-27T06:47:55.916Z,84
2016-10-27T06:49:04.613Z,88
2016-10-27T06:50:13.321Z,96
2016-10-27T06:51:22.015Z,104
2016-10-27T06:52:30.717Z,112
2016-10-27T06:53:39.418Z,112
2016-10-27T06:54:48.113Z,112
2016-10-27T06:55:56.812Z,108
2016-10-27T06:57:05.509Z,124
2016-10-27T06:58:14.562Z,152
2016-10-27T06:59:23.291Z,192
2016-10-27T07:00:31.990Z,216
2016-10-27T07:01:40.685Z,224
2016-10-27T07:02:49.379Z,224
2016-10-27T07:03:58.075Z,212
2016-10-27T07:05:07.084Z,180
2016-10-27T07:06:15.787Z,164
2016-10-27T07:07:24.600Z,164
2016-10-27T07:08:33.300Z,180
2016-10-27T07:09:42.312Z,204
2016-10-27T07:10:51.011Z,236
2016-10-27T07:11:59.741Z,244
2016-10-27T07:13:08.438Z,248
2016-10-27T07:14:17.130Z,256
2016-10-27T07:15:25.825Z,284
2016-10-27T07:16:34.522Z,324
2016-10-27T07:17:43.248Z,372
2016-10-27T07:18:51.947Z,440
2016-10-27T07:20:00.641Z,524
2016-10-27T07:21:09.346Z,588
2016-10-27T07:22:18.050Z,640
2016-10-27T07:23:26.748Z,656
2016-10-27T07:24:35.463Z,648
2016-10-27T07:25:44.160Z,612
2016-10-27T07:26:52.876Z,588
2016-10-27T07:28:01.611Z,592
2016-10-27T07:29:10.311Z,632
2016-10-27T07:30:19.019Z,672
2016-10-27T07:31:27.719Z,712
2016-10-27T07:32:36.459Z,724
2016-10-27T07:33:45.169Z,720
2016-10-27T07:34:53.868Z,712
2016-10-27T07:36:02.564Z,688
2016-10-27T07:37:11.263Z,660
2016-10-27T07:38:19.970Z,624
2016-10-27T07:39:28.669Z,612
2016-10-27T07:40:37.369Z,628
2016-10-27T07:41:46.068Z,664
2016-10-27T07:42:54.771Z,708
2016-10-27T07:44:03.470Z,720
2016-10-27T07:45:12.177Z,716
2016-10-27T07:46:20.880Z,668
2016-10-27T07:47:29.581Z,596
2016-10-27T07:48:38.278Z,560
2016-10-27T07:49:46.987Z,536
2016-10-27T07:50:55.685Z,508
2016-10-27T07:52:04.389Z,484
2016-10-27T07:53:13.094Z,464
2016-10-27T07:54:21.793Z,448
2016-10-27T07:55:30.497Z,444
2016-10-27T07:56:39.202Z,460
2016-10-27T07:57:47.906Z,480
2016-10-27T07:58:56.656Z,484
2016-10-27T08:00:05.355Z,484
2016-10-27T08:01:14.087Z,484
2016-10-27T08:02:22.792Z,512
2016-10-27T08:03:31.503Z,552
2016-10-27T08:04:40.210Z,620
2016-10-27T08:05:48.909Z,672
2016-10-27T08:06:57.613Z,728
2016-10-27T08:08:06.758Z,740
2016-10-27T08:09:15.460Z,744
2016-10-27T08:10:24.162Z,744
2016-10-27T08:11:32.895Z,764
2016-10-27T08:12:41.596Z,784
2016-10-27T08:13:50.292Z,808
2016-10-27T08:14:58.989Z,860
2016-10-27T08:16:07.753Z,888
2016-10-27T08:17:16.456Z,908
2016-10-27T08:18:25.182Z,960
2016-10-27T08:19:33.887Z,996
2016-10-27T08:20:42.591Z,1032
2016-10-27T08:21:51.294Z,1100
2016-10-27T08:22:59.998Z,1100
2016-10-27T08:24:09.020Z,1084
2016-10-27T08:25:17.723Z,1112
2016-10-27T08:26:26.426Z,1232
2016-10-27T08:27:35.442Z,1452
2016-10-27T08:28:44.143Z,1640
2016-10-27T08:29:52.849Z,1712
2016-10-27T08:31:01.553Z,1728
2016-10-27T08:32:10.249Z,1688
2016-10-27T08:33:18.952Z,1700
2016-10-27T08:34:27.652Z,1820
2016-10-27T08:35:36.353Z,1932
2016-10-27T08:36:45.069Z,1992
2016-10-27T08:37:53.773Z,2180
2016-10-27T08:39:02.474Z,2468
2016-10-27T08:40:11.175Z,2816
2016-10-27T08:41:19.873Z,3228
2016-10-27T08:42:28.571Z,3608
2016-10-27T08:43:37.268Z,3700
2016-10-27T08:44:45.966Z,3612
2016-10-27T08:45:54.668Z,3608
2016-10-27T08:47:03.366Z,3628
2016-10-27T08:48:12.110Z,3604
2016-10-27T08:49:20.810Z,3536
2016-10-27T08:50:29.512Z,3468
2016-10-27T08:51:38.212Z,3392
2016-10-27T08:52:46.923Z,3416
2016-10-27T08:53:55.625Z,3488
2016-10-27T08:55:04.331Z,3560
2016-10-27T08:56:13.034Z,3652
2016-10-27T08:57:21.734Z,3592
2016-10-27T08:58:30.437Z,3564
2016-10-27T08:59:39.148Z,3412
2016-10-27T09:00:47.849Z,3132
2016-10-27T09:01:56.588Z,3048
2016-10-27T09:03:05.320Z,3164
2016-10-27T09:04:14.026Z,3308
2016-10-27T09:05:22.735Z,3448
2016-10-27T09:06:31.438Z,3592
2016-10-27T09:07:40.142Z,3708
2016-10-27T09:08:48.850Z,3776
2016-10-27T09:09:57.579Z,3692
2016-10-27T09:11:06.282Z,3388
2016-10-27T09:12:15.020Z,2976
2016-10-27T09:13:23.720Z,2600
2016-10-27T09:14:32.434Z,2116
2016-10-27T09:15:41.136Z,1820
2016-10-27T09:16:49.834Z,1628
2016-10-27T09:17:58.532Z,1516
2016-10-27T09:19:07.233Z,1552
2016-10-27T09:20:15.929Z,1676
2016-10-27T09:21:24.632Z,1772
2016-10-27T09:22:33.340Z,1888
2016-10-27T09:23:42.050Z,2068
2016-10-27T09:24:50.750Z,2272
2016-10-27T09:25:59.449Z,2516
2016-10-27T09:27:08.153Z,2928
2016-10-27T09:28:17.165Z,3464
2016-10-27T09:29:25.868Z,3944
2016-10-27T09:30:34.889Z,4108
2016-10-27T09:31:43.593Z,3912
2016-10-27T09:32:52.292Z,3564
2016-10-27T09:34:00.998Z,3508
2016-10-27T09:35:09.699Z,3788
2016-10-27T09:36:18.401Z,4140
2016-10-27T09:37:27.105Z,4212
2016-10-27T09:38:35.801Z,4196
2016-10-27T09:39:44.510Z,4200
2016-10-27T09:40:53.215Z,4200
2016-10-27T09:42:01.950Z,4268
2016-10-27T09:43:10.657Z,4424
2016-10-27T09:44:19.372Z,4560
2016-10-27T09:45:28.071Z,4664
2016-10-27T09:46:36.771Z,4480
2016-10-27T09:47:45.475Z,4296
2016-10-27T09:48:54.180Z,4028
2016-10-27T09:50:02.880Z,3572
2016-10-27T09:51:11.582Z,3692
2016-10-27T09:52:20.281Z,4148
2016-10-27T09:53:28.981Z,4808
2016-10-27T09:54:37.684Z,4940
2016-10-27T09:55:46.383Z,4776
2016-10-27T09:56:55.080Z,5180
2016-10-27T09:58:03.783Z,5924
2016-10-27T09:59:12.487Z,6660
2016-10-27T10:00:21.190Z,6392
2016-10-27T10:01:29.900Z,6196
2016-10-27T10:02:38.607Z,5432
2016-10-27T10:03:47.349Z,4532
2016-10-27T10:04:56.046Z,4472
2016-10-27T10:06:04.758Z,4456
2016-10-27T10:07:13.481Z,4576
2016-10-27T10:08:22.181Z,4456
2016-10-27T10:09:30.940Z,4188
2016-10-27T10:10:39.645Z,4020
2016-10-27T10:11:48.348Z,4528
2016-10-27T10:12:57.051Z,4584
2016-10-27T10:14:05.759Z,4308
2016-10-27T10:15:14.612Z,4756
2016-10-27T10:16:23.313Z,5380
2016-10-27T10:17:32.019Z,4920
2016-10-27T10:18:40.732Z,4616
2016-10-27T10:19:49.434Z,4476
2016-10-27T10:20:58.134Z,4380
2016-10-27T10:22:06.846Z,4244
2016-10-27T10:23:15.551Z,4140
2016-10-27T10:24:24.291Z,4208
2016-10-27T10:25:32.988Z,4640
2016-10-27T10:26:41.702Z,5408
2016-10-27T10:27:50.405Z,5556
2016-10-27T10:28:59.109Z,4420
2016-10-27T10:30:07.814Z,4220
2016-10-27T10:31:16.517Z,4584
2016-10-27T10:32:25.217Z,4448
2016-10-27T10:33:33.928Z,4628
2016-10-27T10:34:42.630Z,4976
2016-10-27T10:35:51.336Z,4768
2016-10-27T10:37:00.040Z,4968
2016-10-27T10:38:08.742Z,5056
2016-10-27T10:39:17.450Z,4656
2016-10-27T10:40:26.154Z,4940
2016-10-27T10:41:34.860Z,5116
2016-10-27T10:42:43.563Z,5288
2016-10-27T10:43:52.972Z,5016
2016-10-27T10:45:01.682Z,4420
2016-10-27T10:46:10.386Z,4604
2016-10-27T10:47:19.091Z,4368
2016-10-27T10:48:27.797Z,3424
2016-10-27T10:49:36.499Z,3596
2016-10-27T10:50:45.203Z,3500
2016-10-27T10:51:53.904Z,4024
2016-10-27T10:53:02.606Z,4708
2016-10-27T10:54:11.313Z,5336
2016-10-27T10:55:20.015Z,5804
2016-10-27T10:56:28.714Z,6100
2016-10-27T10:57:37.741Z,5880
2016-10-27T10:58:46.442Z,5732
2016-10-27T10:59:55.147Z,5548
2016-10-27T11:01:03.844Z,6220
2016-10-27T11:02:12.550Z,7368
2016-10-27T11:03:21.333Z,10424
2016-10-27T11:04:30.036Z,13712
2016-10-27T11:05:38.737Z,34368
2016-10-27T11:06:47.445Z,32128
2016-10-27T11:07:56.166Z,31040
2016-10-27T11:09:04.876Z,30464
2016-10-27T11:10:13.622Z,23744
2016-10-27T11:11:22.329Z,31264
2016-10-27T11:12:31.037Z,31104
2016-10-27T11:13:39.745Z,32704
2016-10-27T11:14:48.451Z,26336
2016-10-27T11:15:57.158Z,30560
2016-10-27T11:17:05.864Z,18592
2016-10-27T11:18:14.890Z,27808
2016-10-27T11:19:23.593Z,7780
2016-10-27T11:20:32.305Z,28928
2016-10-27T11:21:41.021Z,30272
2016-10-27T11:22:49.735Z,33568
2016-10-27T11:23:58.442Z,7892
2016-10-27T11:25:07.148Z,28800
2016-10-27T11:26:15.851Z,33440
2016-10-27T11:27:24.560Z,34048
2016-10-27T11:28:33.265Z,34816
2016-10-27T11:29:41.977Z,35360
2016-10-27T11:30:50.685Z,34688
2016-10-27T11:31:59.395Z,34496
2016-10-27T11:33:08.160Z,36352
2016-10-27T11:34:16.878Z,35392
2016-10-27T11:35:25.653Z,35168
2016-10-27T11:36:34.358Z,35552
2016-10-27T11:37:43.073Z,36416
2016-10-27T11:38:51.792Z,34528
2016-10-27T11:40:00.537Z,28736
2016-10-27T11:41:09.247Z,22560
2016-10-27T11:42:17.995Z,19360
2016-10-27T11:43:26.709Z,18400
2016-10-27T11:44:35.426Z,11132
2016-10-27T11:45:44.137Z,10880
2016-10-27T11:46:52.844Z,14540
2016-10-27T11:48:01.558Z,14360
2016-10-27T11:49:10.301Z,7200
2016-10-27T11:50:19.008Z,14564
2016-10-27T11:51:27.716Z,7832
2016-10-27T11:52:36.428Z,9268
2016-10-27T11:53:45.143Z,14544
2016-10-27T11:54:53.849Z,15520
2016-10-27T11:56:02.557Z,15936
2016-10-27T11:57:11.299Z,9584
2016-10-27T11:58:20.339Z,14616
2016-10-27T11:59:29.045Z,7732
2016-10-27T12:00:37.763Z,4904
2016-10-27T12:01:46.469Z,4224
2016-10-27T12:02:55.227Z,4276
2016-10-27T12:04:03.936Z,4492
2016-10-27T12:05:12.647Z,5844
2016-10-27T12:06:21.357Z,16640
2016-10-27T12:07:30.125Z,17696
2016-10-27T12:08:38.831Z,13692
2016-10-27T12:09:47.548Z,16960
2016-10-27T12:10:56.249Z,16384
2016-10-27T12:12:04.953Z,16288
2016-10-27T12:13:13.659Z,17632
2016-10-27T12:14:22.367Z,18016
2016-10-27T12:15:31.074Z,18080
2016-10-27T12:16:39.786Z,19776
2016-10-27T12:17:48.496Z,21760
2016-10-27T12:18:57.204Z,22496
2016-10-27T12:20:05.917Z,11672
2016-10-27T12:21:14.626Z,14624
2016-10-27T12:22:23.335Z,8200
2016-10-27T12:23:32.122Z,8104
2016-10-27T12:24:40.827Z,8056
2016-10-27T12:25:49.540Z,7892
2016-10-27T12:26:58.247Z,7668
2016-10-27T12:28:07.265Z,7240
2016-10-27T12:29:15.969Z,6936
2016-10-27T12:30:24.675Z,6744
2016-10-27T12:31:33.398Z,6608
2016-10-27T12:32:42.550Z,6584
2016-10-27T12:33:51.577Z,6864
2016-10-27T12:35:00.283Z,7176
2016-10-27T12:36:08.985Z,7692
2016-10-27T12:37:17.699Z,8200
2016-10-27T12:38:26.410Z,8568
2016-10-27T12:39:35.114Z,8444
2016-10-27T12:40:43.861Z,8020
2016-10-27T12:41:52.568Z,7348
2016-10-27T12:43:01.279Z,6668
2016-10-27T12:44:10.296Z,5744
2016-10-27T12:45:19.322Z,5528
2016-10-27T12:46:28.028Z,6224
2016-10-27T12:47:36.769Z,6712
2016-10-27T12:48:45.481Z,6268
2016-10-27T12:49:54.186Z,6016
2016-10-27T12:51:02.893Z,5624
2016-10-27T12:52:11.597Z,5088
2016-10-27T12:53:20.312Z,4708
2016-10-27T12:54:29.017Z,4196
2016-10-27T12:55:37.757Z,3828
2016-10-27T12:56:46.459Z,5840
2016-10-27T12:57:55.171Z,6116
2016-10-27T12:59:03.895Z,5304
2016-10-27T13:00:12.613Z,4640
2016-10-27T13:01:21.335Z,4220
2016-10-27T13:02:30.357Z,4144
2016-10-27T13:03:39.063Z,7252
2016-10-27T13:04:47.773Z,4348
2016-10-27T13:05:56.477Z,3516
2016-10-27T13:07:05.224Z,2992
2016-10-27T13:08:13.928Z,3044
2016-10-27T13:09:22.627Z,3176
2016-10-27T13:10:31.330Z,3020
2016-10-27T13:11:40.036Z,2552
2016-10-27T13:12:48.851Z,2544
2016-10-27T13:13:57.556Z,2876
2016-10-27T13:15:06.258Z,3876
2016-10-27T13:16:14.966Z,3940
2016-10-27T13:17:23.671Z,3768
2016-10-27T13:18:32.376Z,3868
2016-10-27T13:19:41.082Z,4208
2016-10-27T13:20:49.822Z,5664
2016-10-27T13:21:58.524Z,7108
2016-10-27T13:23:07.232Z,6620
2016-10-27T13:25:47.223Z,5340
2016-10-27T13:26:55.925Z,4592
2016-10-27T13:28:04.634Z,3012
2016-10-27T13:29:13.343Z,2068
2016-10-27T13:30:33.642Z,2196
2016-10-27T13:31:42.352Z,2816
2016-10-27T13:32:51.064Z,3372
2016-10-27T13:33:59.769Z,3600
2016-10-27T13:35:08.473Z,3600
2016-10-27T13:36:17.423Z,3488
2016-10-27T13:37:26.135Z,3124
2016-10-27T13:38:34.837Z,2452
2016-10-27T13:39:43.581Z,2024
2016-10-27T13:40:52.285Z,1776
2016-10-27T13:42:00.987Z,1632
2016-10-27T13:43:09.695Z,1564
2016-10-27T13:44:18.402Z,1344
2016-10-27T13:45:27.107Z,1100
2016-10-27T13:46:35.810Z,960
2016-10-27T13:47:44.525Z,900
2016-10-27T13:48:53.227Z,1012
2016-10-27T13:50:01.942Z,1144
2016-10-27T13:51:10.652Z,1280
2016-10-27T13:52:19.355Z,1352
2016-10-27T13:53:28.065Z,1400
2016-10-27T13:54:37.084Z,1520
2016-10-27T13:55:45.788Z,1728
2016-10-27T13:56:54.499Z,2072
2016-10-27T13:58:03.202Z,2508
2016-10-27T13:59:11.913Z,3016
2016-10-27T14:00:20.618Z,3424
2016-10-27T14:01:29.637Z,3768
2016-10-27T14:02:38.341Z,4196
2016-10-27T14:03:47.048Z,4324
2016-10-27T14:04:55.747Z,4228
2016-10-27T14:06:04.452Z,4288
2016-10-27T14:07:13.162Z,4032
2016-10-27T14:08:21.893Z,3268
2016-10-27T14:09:30.592Z,2980
2016-10-27T14:10:39.303Z,3004
2016-10-27T14:11:48.043Z,3164
2016-10-27T14:12:56.747Z,3308
2016-10-27T14:14:05.447Z,3492
2016-10-27T14:15:14.154Z,3972
2016-10-27T14:16:22.854Z,4640
2016-10-27T14:17:31.562Z,5632
2016-10-27T14:18:40.275Z,5900
2016-10-27T14:19:48.981Z,5180
2016-10-27T14:20:57.687Z,3328
2016-10-27T14:22:06.387Z,2680
2016-10-27T14:23:15.091Z,2360
2016-10-27T14:24:23.799Z,2272
2016-10-27T14:25:32.547Z,2124
2016-10-27T14:26:41.252Z,1992
2016-10-27T14:27:49.954Z,1948
2016-10-27T14:28:58.656Z,1948
2016-10-27T14:30:07.680Z,1980
2016-10-27T14:31:16.414Z,2068
2016-10-27T14:32:25.120Z,2148
2016-10-27T14:33:33.823Z,2176
2016-10-27T14:34:42.522Z,2376
2016-10-27T14:35:51.224Z,2596
2016-10-27T14:36:59.933Z,2728
2016-10-27T14:38:08.637Z,2484
2016-10-27T14:39:17.343Z,2352
2016-10-27T14:40:26.047Z,2132
2016-10-27T14:41:35.064Z,2260
2016-10-27T14:42:43.768Z,2428
2016-10-27T14:43:52.471Z,2284
2016-10-27T14:45:01.170Z,2204
2016-10-27T14:46:09.881Z,2240
2016-10-27T14:47:18.613Z,2004
2016-10-27T14:48:27.317Z,1768
2016-10-27T14:49:36.018Z,1644
2016-10-27T14:50:44.716Z,1348
2016-10-27T14:51:53.417Z,1224
2016-10-27T14:53:02.139Z,1224
2016-10-27T14:54:10.844Z,1244
2016-10-27T14:55:19.544Z,1340
2016-10-27T14:56:28.248Z,1256
2016-10-27T14:57:36.951Z,1156
2016-10-27T14:58:45.687Z,1068
2016-10-27T14:59:54.410Z,1008
2016-10-27T15:01:03.115Z,968
2016-10-27T15:02:11.862Z,1032
2016-10-27T15:03:20.561Z,1032
2016-10-27T15:04:29.267Z,948
2016-10-27T15:05:38.008Z,872
2016-10-27T15:06:46.713Z,756
2016-10-27T15:07:55.413Z,664
2016-10-27T15:09:04.160Z,636
2016-10-27T15:10:12.864Z,600
2016-10-27T15:11:21.564Z,564
2016-10-27T15:12:30.276Z,500
2016-10-27T15:13:39.022Z,468
2016-10-27T15:14:47.723Z,452
2016-10-27T15:15:56.431Z,460
2016-10-27T15:17:05.128Z,484
2016-10-27T15:18:13.833Z,484
2016-10-27T15:19:22.535Z,468
2016-10-27T15:20:31.240Z,428
2016-10-27T15:21:39.946Z,408
2016-10-27T15:22:48.652Z,400
2016-10-27T15:23:57.353Z,408
2016-10-27T15:25:06.063Z,396
2016-10-27T15:26:14.763Z,368
2016-10-27T15:27:23.485Z,352
2016-10-27T15:28:32.192Z,328
2016-10-27T15:29:40.891Z,316
2016-10-27T15:30:49.607Z,288
2016-10-27T15:31:58.309Z,264
2016-10-27T15:33:07.015Z,236
2016-10-27T15:34:15.724Z,212
2016-10-27T15:35:24.424Z,196
2016-10-27T15:36:33.135Z,188
2016-10-27T15:37:41.842Z,180
2016-10-27T15:38:50.544Z,172
2016-10-27T15:39:59.277Z,160
2016-10-27T15:41:07.980Z,152
2016-10-27T15:42:16.686Z,140
2016-10-27T15:43:25.388Z,124
2016-10-27T15:44:34.090Z,108
2016-10-27T15:45:42.798Z,96
2016-10-27T15:46:51.533Z,80
2016-10-27T15:48:00.232Z,72
2016-10-27T15:49:08.949Z,64
2016-10-27T15:50:17.654Z,56
2016-10-27T15:51:26.364Z,48
2016-10-27T15:52:35.068Z,44
2016-10-27T15:53:43.770Z,36
2016-10-27T15:54:52.481Z,36
2016-10-27T15:56:01.184Z,28
2016-10-27T15:57:09.940Z,28
2016-10-27T15:58:18.640Z,20